Latest Weather Observations for Birdsville

IDQ60801

Issued at 10:02 pm EST Saturday 1 October 2016 (issued every 30 minutes, with the page automatically refreshed every 10 minutes)

About weather observations | Map of weather stations | Latest weather observations for QLD | Other Formats
Station Details ID: 038026 Name: BIRDSVILLE AIRPORT Lat: -25.90 Lon: 139.35 Height: 46.6 m
Data from the previous 72 hours. | See also: Recent months at Birdsville
Date/Time
EST
Temp
°C
App
Temp
°C
Dew
Point
°C
Rel
Hum
%
Delta-T
°C
Wind Press
QNH
hPa
Press
MSL
hPa
Rain since
9am
mm
Dir  Spd
km/h
Gust
km/h
Spd
kts
Gust
kts
01/10:00pm 20.5 15.9 5.7 38 7.4 NE 19 24 10 13 1009.5 1009.3 0.0
01/09:30pm 21.6 16.9 5.1 34 8.2 NE 19 24 10 13 1009.4 1009.2 0.0
01/09:00pm 21.6 16.9 5.1 34 8.2 NE 19 24 10 13 1009.2 1009.0 0.0
01/08:30pm 22.0 17.3 5.0 33 8.4 NE 19 22 10 12 1009.3 1009.1 0.0
01/08:00pm 22.1 18.0 4.2 31 8.8 ENE 15 17 8 9 1009.1 1008.9 0.0
01/07:30pm 23.0 18.8 4.0 29 9.3 ENE 15 17 8 9 1008.8 1008.6 0.0
01/07:00pm 24.4 20.2 3.7 26 10.2 NE 15 19 8 10 1008.8 1008.6 0.0
01/06:30pm 26.1 20.8 2.1 21 11.6 NE 19 24 10 13 1008.8 1008.6 0.0
01/06:00pm 27.3 20.5 0.9 18 12.6 NE 26 33 14 18 1008.7 1008.5 0.0
01/05:30pm 28.1 21.7 0.8 17 13.1 NE 24 35 13 19 1008.6 1008.4 0.0
01/05:00pm 28.1 20.8 -0.1 16 13.3 NE 28 37 15 20 1008.7 1008.5 0.0
01/04:30pm 28.4 21.4 -0.7 15 13.6 NNE 26 41 14 22 1009.0 1008.8 0.0
01/04:00pm 28.8 22.3 0.5 16 13.6 NE 24 30 13 16 1009.3 1009.1 0.0
01/03:30pm 28.3 22.4 -0.8 15 13.6 NNE 20 28 11 15 1009.8 1009.6 0.0
01/03:00pm 28.7 22.3 -1.4 14 13.9 NNE 22 33 12 18 1010.2 1010.0 0.0
01/02:30pm 28.1 22.1 -1.9 14 13.7 NNE 20 30 11 16 1010.8 1010.6 0.0
01/02:00pm 27.4 21.9 -2.4 14 13.4 N 17 32 9 17 1011.3 1011.1 0.0
01/01:30pm 26.9 20.9 -2.8 14 13.2 N 19 32 10 17 1011.6 1011.4 0.0
01/01:00pm 27.3 21.6 -0.7 16 13.0 NNE 19 26 10 14 1012.1 1011.9 0.0
01/12:30pm 26.1 20.3 0.0 18 12.1 NNE 20 30 11 16 1012.5 1012.3 0.0
01/12:00pm 25.7 20.1 1.1 20 11.6 NE 20 26 11 14 1013.0 1012.8 0.0
01/11:30am 25.0 19.2 2.4 23 10.9 NE 22 30 12 16 1013.3 1013.1 0.0
01/11:00am 23.7 18.2 2.0 24 10.3 NNE 20 28 11 15 1013.8 1013.6 0.0
01/10:30am 22.7 17.5 3.3 28 9.4 NE 20 26 11 14 1014.1 1013.9 0.0
01/10:00am 21.3 16.2 4.0 32 8.4 NE 20 26 11 14 1014.5 1014.3 0.0
01/09:30am 19.9 14.3 3.6 34 7.7 NE 22 28 12 15 1014.4 1014.3 0.0
01/09:00am 18.4 13.4 4.6 40 6.6 NE 20 24 11 13 1014.5 1014.4 0.0
01/08:30am 16.4 11.9 4.4 45 5.6 NE 17 20 9 11 1014.5 1014.4 0.0
01/08:00am 14.3 10.6 4.3 51 4.6 NE 13 17 7 9 1014.2 1014.1 0.0
01/07:30am 11.6 8.3 4.8 63 3.1 NE 11 13 6 7 1013.9 1013.8 0.0
01/07:00am 9.5 6.0 5.3 75 1.9 NE 13 15 7 8 1013.7 1013.6 0.0
01/06:30am 8.7 5.5 5.3 79 1.5 ENE 11 13 6 7 1013.2 1013.1 0.0
01/06:00am 8.6 5.4 5.0 78 1.6 NE 11 13 6 7 1012.8 1012.7 0.0
01/05:30am 8.9 5.9 5.8 81 1.4 NE 11 11 6 6 1012.4 1012.3 0.0
01/05:00am 9.0 6.3 5.4 78 1.6 NE 9 11 5 6 1012.1 1012.0 0.0
01/04:30am 9.2 6.3 4.8 74 2.0 NE 9 11 5 6 1011.9 1011.8 0.0
01/04:00am 9.4 6.5 4.6 72 2.1 NE 9 11 5 6 1011.7 1011.6 0.0
01/03:30am 9.6 7.0 4.4 70 2.3 NE 7 9 4 5 1011.8 1011.7 0.0
01/03:00am 9.6 6.7 4.4 70 2.3 NE 9 11 5 6 1011.7 1011.6 0.0
01/02:30am 10.2 9.0 4.8 69 2.4 CALM 0 0 0 0 1011.9 1011.8 0.0
01/02:00am 10.6 9.3 4.1 64 2.9 CALM 0 6 0 3 1012.0 1011.9 0.0
01/01:30am 11.2 8.8 4.4 63 3.1 N 6 7 3 4 1011.9 1011.8 0.0
01/01:00am 11.6 9.2 4.1 60 3.4 N 6 7 3 4 1012.1 1012.0 0.0
01/12:30am 11.8 9.3 4.8 62 3.2 N 7 9 4 5 1012.3 1012.2 0.0
01/12:00am 11.7 9.3 4.2 60 3.4 N 6 7 3 4 1012.7 1012.6 0.0
 
Date/Time
EST
Temp
°C
App
Temp
°C
Dew
Point
°C
Rel
Hum
%
Delta-T
°C
Wind Press
QNH
hPa
Press
MSL
hPa
Rain since
9am
mm
Dir  Spd
km/h
Gust
km/h
Spd
kts
Gust
kts
30/11:30pm 12.5 9.9 4.0 56 3.8 NNW 7 9 4 5 1012.8 1012.7 0.0
30/11:00pm 12.7 9.9 3.4 53 4.2 NNW 7 9 4 5 1013.1 1013.0 0.0
30/10:30pm 13.1 11.3 3.2 51 4.4 W 2 7 1 4 1013.0 1012.9 0.0
30/10:00pm 13.7 12.2 3.2 49 4.7 CALM 0 0 0 0 1012.8 1012.7 0.0
30/09:30pm 14.7 13.2 5.0 52 4.6 WSW 2 6 1 3 1012.8 1012.7 0.0
30/09:00pm 14.9 11.9 2.1 42 5.7 WSW 7 9 4 5 1012.7 1012.6 0.0
30/08:30pm 15.7 12.7 2.2 40 6.0 WSW 7 9 4 5 1012.4 1012.3 0.0
30/08:00pm 16.1 13.2 1.4 37 6.5 WSW 6 7 3 4 1011.7 1011.6 0.0
30/07:30pm 16.7 13.2 1.2 35 6.8 W 9 11 5 6 1011.8 1011.7 0.0
30/07:00pm 17.8 14.2 0.9 32 7.5 W 9 13 5 7 1011.9 1011.8 0.0
30/06:30pm 19.3 14.9 0.4 28 8.4 W 13 15 7 8 1011.6 1011.5 0.0
30/06:00pm 20.3 15.9 0.2 26 9.0 WSW 13 19 7 10 1011.3 1011.2 0.0
30/05:30pm 20.9 15.7 0.2 25 9.3 WSW 17 22 9 12 1011.3 1011.2 0.0
30/05:00pm 20.8 15.6 0.1 25 9.2 W 17 24 9 13 1011.2 1011.1 0.0
30/04:30pm 20.5 14.9 -0.2 25 9.2 WSW 19 28 10 15 1011.1 1011.0 0.0
30/04:00pm 20.7 15.6 0.5 26 9.1 W 17 30 9 16 1011.5 1011.4 0.0
30/03:30pm 21.1 15.0 0.3 25 9.3 WSW 22 35 12 19 1011.8 1011.7 0.0
30/03:00pm 20.3 14.1 -0.3 25 9.1 SW 22 32 12 17 1011.8 1011.7 0.0
30/02:30pm 20.4 14.7 0.3 26 9.0 WSW 20 35 11 19 1012.2 1012.1 0.0
30/02:00pm 20.3 14.7 1.2 28 8.7 W 20 32 11 17 1012.6 1012.5 0.0
30/01:30pm 20.0 14.3 0.5 27 8.7 W 20 32 11 17 1013.3 1013.2 0.0
30/01:00pm 19.4 13.0 0.9 29 8.3 WSW 24 37 13 20 1013.7 1013.6 0.0
30/12:30pm 19.1 13.4 0.7 29 8.2 W 20 28 11 15 1014.0 1013.9 0.0
30/12:00pm 17.8 12.1 0.5 31 7.6 W 20 32 11 17 1014.3 1014.2 0.0
30/11:30am 17.5 11.9 1.1 33 7.3 WSW 20 33 11 18 1014.5 1014.4 0.0
30/11:00am 17.3 11.7 1.3 34 7.1 WSW 20 32 11 17 1014.8 1014.7 0.0
30/10:30am 16.5 11.4 1.0 35 6.8 WSW 17 28 9 15 1014.9 1014.8 0.0
30/10:00am 15.6 10.6 1.4 38 6.2 SW 17 28 9 15 1015.1 1015.0 0.0
30/09:30am 14.9 9.5 1.4 40 5.9 SW 19 20 10 11 1015.1 1015.0 0.0
30/09:00am 14.0 8.4 1.3 42 5.5 SW 20 26 11 14 1014.9 1014.8 0.0
30/08:30am 13.7 7.8 1.4 43 5.3 SW 22 28 12 15 1014.3 1014.2 0.0
30/08:00am 12.9 7.6 1.9 47 4.8 SW 19 26 10 14 1014.1 1014.0 0.0
30/07:30am 12.0 7.8 1.9 50 4.3 W 13 15 7 8 1013.8 1013.7 0.0
30/07:00am 10.4 6.2 1.8 55 3.6 WSW 13 17 7 9 1013.4 1013.3 0.0
30/06:30am 10.0 5.4 1.6 56 3.5 WSW 15 17 8 9 1012.9 1012.8 0.0
30/06:00am 10.1 5.9 1.5 55 3.6 WSW 13 17 7 9 1012.5 1012.4 0.0
30/05:30am 10.6 6.0 1.4 53 3.8 W 15 17 8 9 1011.9 1011.8 0.0
30/05:00am 10.7 5.7 1.3 52 3.9 WSW 17 20 9 11 1011.5 1011.4 0.0
30/04:30am 11.0 6.4 1.3 51 4.1 WSW 15 19 8 10 1011.5 1011.4 0.0
30/04:00am 11.0 5.9 1.0 50 4.2 WSW 17 20 9 11 1011.2 1011.1 0.0
30/03:30am 11.4 6.7 0.8 48 4.4 WSW 15 20 8 11 1011.1 1011.0 0.0
30/03:00am 11.4 6.6 0.2 46 4.6 W 15 19 8 10 1011.1 1011.0 0.0
30/02:30am 11.7 6.8 -0.4 43 4.9 W 15 19 8 10 1011.2 1011.1 0.0
30/02:00am 12.1 7.2 -0.4 42 5.1 WNW 15 19 8 10 1011.2 1011.1 0.0
30/01:30am 11.8 6.9 -0.4 43 5.0 WNW 15 17 8 9 1011.6 1011.5 0.0
30/01:00am 11.5 7.0 -0.3 44 4.8 NW 13 15 7 8 1011.9 1011.8 0.0
30/12:30am 12.3 7.3 -0.9 40 5.3 WNW 15 17 8 9 1012.1 1012.0 0.0
30/12:00am 13.5 8.1 -1.3 36 6.0 WNW 17 20 9 11 1012.1 1012.0 0.0
 
Date/Time
EST
Temp
°C
App
Temp
°C
Dew
Point
°C
Rel
Hum
%
Delta-T
°C
Wind Press
QNH
hPa
Press
MSL
hPa
Rain since
9am
mm
Dir  Spd
km/h
Gust
km/h
Spd
kts
Gust
kts
29/11:30pm 13.4 8.4 -1.3 36 5.9 WNW 15 19 8 10 1012.1 1012.0 0.0
29/11:00pm 12.7 7.7 -0.9 39 5.5 NW 15 17 8 9 1012.1 1012.0 0.0
29/10:30pm 12.9 8.0 -0.7 39 5.5 NW 15 17 8 9 1012.3 1012.2 0.0
29/10:00pm 13.4 8.4 -1.0 37 5.9 WNW 15 17 8 9 1012.4 1012.3 0.0
29/09:30pm 13.9 9.3 -1.3 35 6.2 WNW 13 15 7 8 1012.1 1012.0 0.0
29/09:00pm 14.6 9.9 -1.9 32 6.7 WNW 13 15 7 8 1011.9 1011.8 0.0
29/08:30pm 15.0 10.7 -2.0 31 6.9 W 11 13 6 7 1011.4 1011.3 0.0
29/08:00pm 15.8 10.7 -2.2 29 7.3 W 15 17 8 9 1011.2 1011.1 0.0
29/07:30pm 16.4 11.2 -3.1 26 7.8 W 15 20 8 11 1010.9 1010.8 0.0
29/07:00pm 17.2 10.2 -3.5 24 8.3 WSW 24 32 13 17 1010.4 1010.3 0.0
29/06:30pm 18.1 10.3 -3.9 22 8.8 WSW 28 35 15 19 1010.1 1010.0 0.0
29/06:00pm 18.8 10.9 -4.6 20 9.3 W 28 41 15 22 1009.8 1009.7 0.0
29/05:30pm 19.3 10.4 -4.9 19 9.6 W 33 43 18 23 1009.4 1009.3 0.0
29/05:00pm 19.8 10.5 -5.2 18 10.0 WSW 35 46 19 25 1009.0 1008.9 0.0
29/04:30pm 20.0 11.1 -5.0 18 10.0 W 33 50 18 27 1008.8 1008.7 0.0
29/04:06pm 20.1 11.1 -5.7 17 10.2 W 33 54 18 29 1008.8 1008.7 0.0
29/04:00pm 20.4 11.7 -5.4 17 10.3 WSW 32 46 17 25 1008.9 1008.8 0.0
29/03:35pm 19.8 11.0 -5.9 17 10.1 W 32 50 17 27 1009.0 1008.9 0.0
29/03:30pm 19.9 11.0 -5.1 18 10.0 W 33 48 18 26 1009.1 1009.0 0.0
29/03:00pm 19.8 10.9 -5.2 18 10.0 W 33 44 18 24 1009.2 1009.1 0.0
29/02:33pm 20.2 11.5 -5.6 17 10.2 W 32 50 17 27 1009.4 1009.3 0.0
29/02:30pm 20.0 11.2 -5.8 17 10.2 W 32 43 17 23 1009.4 1009.3 0.0
29/02:00pm 20.1 11.3 -6.5 16 10.4 W 32 50 17 27 1009.8 1009.7 0.0
29/01:52pm 19.6 10.7 -7.7 15 10.3 W 32 50 17 27 1009.9 1009.8 0.0
29/01:30pm 19.2 10.0 -8.0 15 10.1 W 33 50 18 27 1010.2 1010.1 0.0
29/01:16pm 19.4 10.2 -7.9 15 10.2 W 33 52 18 28 1010.4 1010.3 0.0
29/01:00pm 18.9 9.3 -8.3 15 10.1 W 35 46 19 25 1010.7 1010.6 0.0
29/12:39pm 19.1 9.2 -8.1 15 10.1 W 37 56 20 30 1011.0 1010.9 0.0
29/12:30pm 18.7 8.7 -8.4 15 10.0 W 37 52 20 28 1011.3 1011.2 0.0
29/12:15pm 18.4 8.9 -7.8 16 9.7 WSW 35 54 19 29 1011.5 1011.4 0.0
29/12:00pm 18.6 8.4 -6.9 17 9.7 W 39 52 21 28 1011.8 1011.7 0.0
29/11:30am 18.1 7.9 -6.6 18 9.4 W 39 54 21 29 1012.1 1012.0 0.0
29/11:00am 17.5 7.8 -5.7 20 8.9 WSW 37 50 20 27 1012.4 1012.3 0.0
29/10:40am 17.6 7.2 -5.0 21 8.8 WSW 41 61 22 33 1012.3 1012.2 0.0
29/10:30am 17.2 7.1 -5.9 20 8.8 WSW 39 56 21 30 1012.4 1012.3 0.0
29/10:00am 16.8 6.7 -6.3 20 8.7 WSW 39 59 21 32 1012.4 1012.3 0.0
29/09:59am 16.5 6.3 -6.5 20 8.6 WSW 39 59 21 32 1012.4 1012.3 0.0
29/09:30am 16.6 6.1 -5.8 21 8.5 W 41 57 22 31 1012.6 1012.5 0.0
29/09:00am 16.0 6.8 -4.5 24 8.0 WSW 35 54 19 29 1012.5 1012.4 0.0
29/08:54am 15.6 6.7 -4.9 24 7.8 W 33 54 18 29 1012.4 1012.3 0.0
29/08:30am 15.4 7.6 -3.5 27 7.4 WSW 28 35 15 19 1012.5 1012.4 0.0
29/08:00am 14.6 8.1 -2.8 30 6.9 W 22 28 12 15 1012.2 1012.1 0.0
29/07:30am 13.6 8.1 -1.9 34 6.2 W 17 22 9 12 1011.7 1011.6 0.0
29/07:00am 11.6 7.5 -0.2 44 4.8 SW 11 13 6 7 1011.2 1011.1 0.0
29/06:30am 10.9 6.8 -0.5 45 4.6 SW 11 13 6 7 1010.9 1010.8 0.0
29/06:00am 11.3 6.8 -0.5 44 4.8 SW 13 15 7 8 1010.5 1010.4 0.0
29/05:30am 12.2 6.4 -1.3 39 5.4 SW 19 20 10 11 1010.2 1010.1 0.0
29/05:00am 13.1 6.3 -2.0 35 6.0 SW 24 30 13 16 1009.8 1009.7 0.0
29/04:30am 13.7 5.7 -2.3 33 6.4 SW 30 35 16 19 1009.2 1009.1 0.0
29/04:00am 14.7 4.2 -2.2 31 6.8 SW 43 54 23 29 1008.8 1008.7 0.0
29/03:30am 15.3 4.8 -2.2 30 7.1 SW 43 54 23 29 1008.6 1008.5 0.0
29/03:04am 16.4 8.0 -1.2 30 7.4 SSW 33 52 18 28 1008.0 1007.9 0.0
29/03:00am 16.4 8.0 -0.8 31 7.3 SW 33 41 18 22 1008.0 1007.9 0.0
29/02:30am 17.1 9.1 0.3 32 7.3 SW 32 39 17 21 1007.4 1007.2 0.0
29/02:00am 18.1 9.0 1.6 33 7.4 SSW 39 48 21 26 1007.0 1006.8 0.0
29/01:41am 18.9 9.9 4.7 39 6.8 SSW 41 59 22 32 1006.6 1006.4 0.0
29/01:33am 19.4 12.6 6.8 44 6.3 WSW 32 59 17 32 1006.3 1006.1 0.0
29/01:31am 19.6 15.9 13.8 69 3.3 W 26 52 14 28 1006.4 1006.2 0.0
29/01:30am 19.7 17.3 16.5 82 1.9 W 24 37 13 20 1006.3 1006.1 0.0
29/01:00am 19.3 17.7 16.5 84 1.7 WNW 20 26 11 14 1005.5 1005.3 0.0
29/12:30am 19.7 16.1 16.3 81 2.0 NW 30 39 16 21 1004.8 1004.6 0.0
29/12:00am 19.9 15.9 16.3 80 2.2 NNW 32 43 17 23 1004.1 1003.9 0.0
 
Date/Time
EST
Temp
°C
App
Temp
°C
Dew
Point
°C
Rel
Hum
%
Delta-T
°C
Wind Press
QNH
hPa
Press
MSL
hPa
Rain since
9am
mm
Dir  Spd
km/h
Gust
km/h
Spd
kts
Gust
kts
28/11:30pm 20.1 15.6 16.3 79 2.3 NNW 35 43 19 23 1003.9 1003.7 0.0
28/11:00pm 20.2 15.2 16.0 77 2.5 N 37 48 20 26 1003.8 1003.6 0.0
28/10:30pm 20.3 14.8 15.7 75 2.7 N 39 50 21 27 1004.0 1003.8 0.0

Other Formats:

Comma delimited format used in spreadsheet applications
http://www.bom.gov.au/fwo/IDQ60801/IDQ60801.95482.axf

JavaScript Object Notation format (JSON) in row-major order
http://www.bom.gov.au/fwo/IDQ60801/IDQ60801.95482.json